createdAt,value
2023-03-13T00:00:23.485Z,100269.72
2023-03-13T00:05:49.936Z,100271.50
2023-03-13T00:10:56.326Z,100266.41
2023-03-13T00:16:07.555Z,100271.63
2023-03-13T00:21:14.486Z,100285.38
2023-03-13T00:26:23.729Z,100267.44
2023-03-13T00:31:33.955Z,100269.16
2023-03-13T00:36:40.550Z,100270.94
2023-03-13T00:41:48.304Z,100257.25
2023-03-13T00:46:56.224Z,100252.94
2023-03-13T00:52:02.555Z,100246.09
2023-03-13T00:57:09.358Z,100244.41
2023-03-13T01:02:17.566Z,100237.53
2023-03-13T01:07:24.089Z,100223.00
2023-03-13T01:12:31.319Z,100209.28
2023-03-13T01:17:39.387Z,100193.91
2023-03-13T01:22:46.178Z,100192.19
2023-03-13T01:27:53.389Z,100195.66
2023-03-13T01:33:04.004Z,100185.38
2023-03-13T01:38:11.284Z,100179.41
2023-03-13T01:43:26.816Z,100175.13
2023-03-13T01:48:47.971Z,100155.44
2023-03-13T01:54:05.029Z,100156.31
2023-03-13T01:59:15.978Z,100152.91
2023-03-13T02:04:25.669Z,100153.75
2023-03-13T02:09:34.244Z,100141.78
2023-03-13T02:14:43.619Z,100139.25
2023-03-13T02:19:53.613Z,100160.69
2023-03-13T02:25:09.409Z,100149.53
2023-03-13T02:30:18.240Z,100140.16
2023-03-13T02:35:26.214Z,100133.28
2023-03-13T02:40:37.201Z,100146.19
2023-03-13T02:46:01.586Z,100153.06
2023-03-13T02:51:18.122Z,100141.91
2023-03-13T02:56:28.898Z,100138.50
2023-03-13T03:01:37.268Z,100153.94
2023-03-13T03:06:43.840Z,100141.09
2023-03-13T03:11:50.851Z,100135.94
2023-03-13T03:16:58.838Z,100135.13
2023-03-13T03:22:06.669Z,100145.41
2023-03-13T03:27:13.891Z,100136.00
2023-03-13T03:32:28.513Z,100136.03
2023-03-13T03:37:35.470Z,100126.59
2023-03-13T03:42:43.846Z,100128.34
2023-03-13T03:47:51.984Z,100115.50
2023-03-13T03:52:58.677Z,100103.50
2023-03-13T03:58:06.080Z,100100.94
2023-03-13T04:03:34.509Z,100089.78
2023-03-13T04:08:41.412Z,100094.09
2023-03-13T04:13:50.481Z,100087.25
2023-03-13T04:18:59.088Z,100089.81
2023-03-13T04:24:07.460Z,100071.81
2023-03-13T04:29:16.086Z,100073.53
2023-03-13T04:34:50.783Z,100065.81
2023-03-13T04:40:17.902Z,100058.13
2023-03-13T04:45:55.267Z,100058.09
2023-03-13T04:51:03.968Z,100058.13
2023-03-13T04:56:41.778Z,100046.97
2023-03-13T05:02:12.233Z,100047.84
2023-03-13T05:07:20.903Z,100049.53
2023-03-13T05:12:46.691Z,100047.00
2023-03-13T05:18:28.917Z,100051.28
2023-03-13T05:24:07.135Z,100044.44
2023-03-13T05:29:14.058Z,100037.56
2023-03-13T05:34:46.762Z,100026.41
2023-03-13T05:40:15.974Z,100025.56
2023-03-13T05:45:54.732Z,100037.59
2023-03-13T05:51:16.894Z,100033.31
2023-03-13T05:56:37.687Z,100023.00
2023-03-13T06:02:02.454Z,100025.56
2023-03-13T06:07:17.684Z,100027.28
2023-03-13T06:12:25.569Z,100019.53
2023-03-13T06:17:31.960Z,100013.53
2023-03-13T06:22:38.812Z,100022.97
2023-03-13T06:27:46.924Z,100019.53
2023-03-13T06:32:53.574Z,100013.53
2023-03-13T06:38:00.299Z,100013.50
2023-03-13T06:43:08.419Z,100013.50
2023-03-13T06:48:14.950Z,100008.34
2023-03-13T06:53:22.592Z,99996.31
2023-03-13T06:58:32.784Z,99999.72
2023-03-13T07:03:41.719Z,99998.84
2023-03-13T07:08:48.847Z,99992.81
2023-03-13T07:14:15.200Z,99985.03
2023-03-13T07:19:23.372Z,99989.28
2023-03-13T07:24:29.905Z,99981.53
2023-03-13T07:29:38.114Z,99978.84
2023-03-13T07:34:45.683Z,99963.31
2023-03-13T07:39:52.376Z,99961.50
2023-03-13T07:45:00.409Z,99954.53
2023-03-13T07:50:08.302Z,99947.50
2023-03-13T07:55:14.781Z,99952.50
2023-03-13T08:00:24.609Z,99952.44
2023-03-13T08:05:32.127Z,99947.16
2023-03-13T08:10:38.679Z,99943.59
2023-03-13T08:15:46.429Z,99939.25
2023-03-13T08:20:52.821Z,99941.75
2023-03-13T08:26:03.136Z,99939.91
2023-03-13T08:31:12.984Z,99935.38
2023-03-13T08:36:23.539Z,99914.63
2023-03-13T08:41:48.361Z,99897.97
2023-03-13T08:46:57.326Z,99885.50
2023-03-13T08:52:05.796Z,99871.38
2023-03-13T08:57:12.260Z,99865.13
2023-03-13T09:02:21.589Z,99857.91
2023-03-13T09:07:28.248Z,99851.63
2023-03-13T09:12:34.671Z,99843.50
2023-03-13T09:17:42.813Z,99831.31
2023-03-13T09:22:51.271Z,99835.31
2023-03-13T09:27:57.774Z,99828.84
2023-03-13T09:33:05.794Z,99817.28
2023-03-13T09:38:12.437Z,99812.81
2023-03-13T09:43:34.820Z,99803.09
2023-03-13T09:48:47.670Z,99794.19
2023-03-13T09:54:01.492Z,99792.94
2023-03-13T09:59:19.106Z,99790.09
2023-03-13T10:04:36.118Z,99777.56
2023-03-13T10:09:42.827Z,99784.22
2023-03-13T10:15:02.226Z,99780.66
2023-03-13T10:20:24.862Z,99777.19
2023-03-13T10:25:35.394Z,99775.06
2023-03-13T10:30:48.865Z,99768.16
2023-03-13T10:36:10.860Z,99755.94
2023-03-13T10:41:32.808Z,99749.81
2023-03-13T10:46:45.367Z,99736.78
2023-03-13T10:51:56.244Z,99733.16
2023-03-13T10:57:30.530Z,99719.63
2023-03-13T11:02:40.466Z,99697.53
2023-03-13T11:07:48.686Z,99676.31
2023-03-13T11:12:57.446Z,99666.44
2023-03-13T11:18:13.089Z,99651.22
2023-03-13T11:23:27.376Z,99638.81
2023-03-13T11:28:52.346Z,99634.63
2023-03-13T11:34:07.631Z,99610.13
2023-03-13T11:39:43.028Z,99591.00
2023-03-13T11:44:59.955Z,99590.78
2023-03-13T11:50:27.901Z,99588.25
2023-03-13T11:55:57.656Z,99575.78
2023-03-13T12:01:09.782Z,99577.44
2023-03-13T12:06:28.798Z,99573.25
2023-03-13T12:11:44.218Z,99573.38
2023-03-13T12:16:56.194Z,99560.09
2023-03-13T12:22:14.853Z,99561.97
2023-03-13T12:27:32.976Z,99555.06
2023-03-13T12:32:45.346Z,99556.19
2023-03-13T12:38:00.100Z,99547.13
2023-03-13T12:43:16.324Z,99550.00
2023-03-13T12:48:47.078Z,99533.72
2023-03-13T12:54:41.970Z,99525.16
2023-03-13T12:59:56.190Z,99522.75
2023-03-13T13:05:04.571Z,99514.97
2023-03-13T13:10:25.462Z,99501.22
2023-03-13T13:15:33.533Z,99490.91
2023-03-13T13:20:47.422Z,99474.66
2023-03-13T13:25:55.822Z,99474.94
2023-03-13T13:31:24.461Z,99474.19
2023-03-13T13:36:44.949Z,99453.44
2023-03-13T13:41:51.645Z,99453.47
2023-03-13T13:47:02.367Z,99435.50
2023-03-13T13:52:43.886Z,99422.44
2023-03-13T13:57:54.127Z,99412.13
2023-03-13T14:03:00.895Z,99422.44
2023-03-13T14:08:19.463Z,99407.56
2023-03-13T14:13:26.407Z,99400.72
2023-03-13T14:18:33.730Z,99390.31
2023-03-13T14:23:45.022Z,99386.94
2023-03-13T14:28:54.282Z,99378.31
2023-03-13T14:34:02.665Z,99361.81
2023-03-13T14:39:21.790Z,99361.13
2023-03-13T14:44:32.605Z,99359.66
2023-03-13T14:49:39.774Z,99348.53
2023-03-13T14:54:58.250Z,99346.78
2023-03-13T15:00:36.694Z,99346.84
2023-03-13T15:05:43.302Z,99341.63
2023-03-13T15:10:52.346Z,99338.22
2023-03-13T15:15:59.063Z,99333.97
2023-03-13T15:21:27.826Z,99335.63
2023-03-13T15:26:35.936Z,99333.94
2023-03-13T15:31:42.881Z,99327.09
2023-03-13T15:36:49.675Z,99333.97
2023-03-13T15:41:57.559Z,99328.78
2023-03-13T15:47:04.454Z,99321.06
2023-03-13T15:52:19.356Z,99315.00
2023-03-13T15:57:29.475Z,99303.66
2023-03-13T16:02:36.030Z,99310.56
2023-03-13T16:07:42.621Z,99314.84
2023-03-13T16:12:50.600Z,99321.00
2023-03-13T16:17:57.127Z,99320.09
2023-03-13T16:23:04.880Z,99326.25
2023-03-13T16:28:16.330Z,99314.00
2023-03-13T16:33:23.658Z,99310.47
2023-03-13T16:38:30.744Z,99321.69
2023-03-13T16:43:39.106Z,99313.88
2023-03-13T16:48:47.109Z,99331.00
2023-03-13T16:53:56.689Z,99322.34
2023-03-13T16:59:09.074Z,99321.47
2023-03-13T17:04:16.723Z,99323.16
2023-03-13T17:09:23.400Z,99330.03
2023-03-13T17:14:33.609Z,99320.47
2023-03-13T17:19:40.886Z,99320.34
2023-03-13T17:24:50.325Z,99325.34
2023-03-13T17:30:00.417Z,99324.44
2023-03-13T17:35:08.795Z,99320.78
2023-03-13T17:40:22.647Z,99324.06
2023-03-13T17:45:31.336Z,99322.28
2023-03-13T17:50:40.836Z,99320.50
2023-03-13T17:55:49.258Z,99326.44
2023-03-13T18:00:59.236Z,99322.03
2023-03-13T18:06:16.640Z,99320.16
2023-03-13T18:11:27.115Z,99317.69
2023-03-13T18:16:42.870Z,99311.50
2023-03-13T18:21:53.607Z,99305.34
2023-03-13T18:27:03.595Z,99308.75
2023-03-13T18:32:15.984Z,99300.09
2023-03-13T18:37:29.363Z,99295.84
2023-03-13T18:42:38.320Z,99302.72
2023-03-13T18:47:53.302Z,99295.72
2023-03-13T18:53:05.106Z,99300.94
2023-03-13T18:58:15.824Z,99294.88
2023-03-13T19:03:29.665Z,99290.53
2023-03-13T19:08:40.610Z,99297.50
2023-03-13T19:13:52.625Z,99298.50
2023-03-13T19:19:06.015Z,99296.63
2023-03-13T19:24:17.885Z,99291.56
2023-03-13T19:29:30.444Z,99298.44
2023-03-13T19:34:42.006Z,99290.69
2023-03-13T19:39:54.598Z,99285.47
2023-03-13T19:45:06.810Z,99292.50
2023-03-13T19:50:28.741Z,99297.66
2023-03-13T19:55:37.979Z,99286.38
2023-03-13T20:00:48.142Z,99293.28
2023-03-13T20:05:59.550Z,99298.44
2023-03-13T20:11:08.998Z,99282.94
2023-03-13T20:16:18.864Z,99279.38
2023-03-13T20:21:33.167Z,99271.75
2023-03-13T20:26:45.289Z,99276.94
2023-03-13T20:31:53.816Z,99275.34
2023-03-13T20:37:05.295Z,99272.66
2023-03-13T20:42:18.336Z,99254.41
2023-03-13T20:47:29.160Z,99246.59
2023-03-13T20:52:43.159Z,99245.72
2023-03-13T20:57:54.057Z,99248.31
2023-03-13T21:03:04.836Z,99253.50
2023-03-13T21:08:15.069Z,99241.25
2023-03-13T21:13:24.033Z,99244.72
2023-03-13T21:18:32.741Z,99219.47
2023-03-13T21:23:45.923Z,99218.72
2023-03-13T21:28:54.798Z,99201.34
2023-03-13T21:34:02.564Z,99184.94
2023-03-13T21:39:12.718Z,99184.22
2023-03-13T21:44:20.069Z,99181.59
2023-03-13T21:49:27.045Z,99179.84
2023-03-13T21:54:35.810Z,99176.41
2023-03-13T21:59:43.445Z,99178.16
2023-03-13T22:04:51.304Z,99172.03
2023-03-13T22:10:00.498Z,99179.06
2023-03-13T22:15:08.813Z,99194.63
2023-03-13T22:20:15.887Z,99185.97
2023-03-13T22:25:24.289Z,99182.44
2023-03-13T22:30:30.876Z,99179.84
2023-03-13T22:35:40.061Z,99176.28
2023-03-13T22:40:48.814Z,99177.91
2023-03-13T22:45:55.996Z,99166.69
2023-03-13T22:51:08.462Z,99153.50
2023-03-13T22:56:17.211Z,99160.59
2023-03-13T23:01:23.708Z,99146.69
2023-03-13T23:06:30.427Z,99120.59
2023-03-13T23:11:38.795Z,99123.16
2023-03-13T23:16:45.860Z,99123.34
2023-03-13T23:21:52.795Z,99112.47
2023-03-13T23:27:01.004Z,99119.81
2023-03-13T23:32:07.657Z,99116.47
2023-03-13T23:37:14.127Z,99107.84
2023-03-13T23:42:21.882Z,99096.13
2023-03-13T23:47:31.843Z,99090.28
2023-03-13T23:52:39.180Z,99085.41
2023-03-13T23:57:51.022Z,99091.69
